sensor_id;sensor_type;location;lat;lon;timestamp;P1;durP1;ratioP1;P2;durP2;ratioP2
46723;SDS011;32463;48.298;11.620;2023-12-20T00:00:06;3.10;;;1.60;;
46723;SDS011;32463;48.298;11.620;2023-12-20T00:02:33;3.15;;;1.50;;
46723;SDS011;32463;48.298;11.620;2023-12-20T00:05:00;3.92;;;1.70;;
46723;SDS011;32463;48.298;11.620;2023-12-20T00:07:26;3.78;;;1.60;;
46723;SDS011;32463;48.298;11.620;2023-12-20T00:09:53;3.70;;;1.40;;
46723;SDS011;32463;48.298;11.620;2023-12-20T00:12:19;3.58;;;1.70;;
46723;SDS011;32463;48.298;11.620;2023-12-20T00:14:46;3.08;;;1.48;;
46723;SDS011;32463;48.298;11.620;2023-12-20T00:17:13;3.13;;;1.60;;
46723;SDS011;32463;48.298;11.620;2023-12-20T00:19:41;4.45;;;1.70;;
46723;SDS011;32463;48.298;11.620;2023-12-20T00:22:08;5.03;;;2.00;;
46723;SDS011;32463;48.298;11.620;2023-12-20T00:24:34;3.67;;;1.90;;
46723;SDS011;32463;48.298;11.620;2023-12-20T00:27:01;3.92;;;1.80;;
46723;SDS011;32463;48.298;11.620;2023-12-20T00:29:28;4.63;;;1.45;;
46723;SDS011;32463;48.298;11.620;2023-12-20T00:31:55;4.45;;;1.58;;
46723;SDS011;32463;48.298;11.620;2023-12-20T00:34:21;3.15;;;1.90;;
46723;SDS011;32463;48.298;11.620;2023-12-20T00:36:48;2.95;;;1.58;;
46723;SDS011;32463;48.298;11.620;2023-12-20T00:39:14;3.85;;;1.63;;
46723;SDS011;32463;48.298;11.620;2023-12-20T00:41:40;2.97;;;1.50;;
46723;SDS011;32463;48.298;11.620;2023-12-20T00:44:07;3.03;;;1.48;;
46723;SDS011;32463;48.298;11.620;2023-12-20T00:46:33;3.17;;;1.50;;
46723;SDS011;32463;48.298;11.620;2023-12-20T00:49:00;4.90;;;1.95;;
46723;SDS011;32463;48.298;11.620;2023-12-20T00:51:26;1.88;;;1.40;;
46723;SDS011;32463;48.298;11.620;2023-12-20T00:53:52;4.32;;;1.73;;
46723;SDS011;32463;48.298;11.620;2023-12-20T00:56:20;3.75;;;1.65;;
46723;SDS011;32463;48.298;11.620;2023-12-20T00:58:47;4.20;;;1.77;;
46723;SDS011;32463;48.298;11.620;2023-12-20T01:01:13;3.55;;;1.58;;
46723;SDS011;32463;48.298;11.620;2023-12-20T01:03:40;4.85;;;1.80;;
46723;SDS011;32463;48.298;11.620;2023-12-20T01:06:06;3.05;;;1.63;;
46723;SDS011;32463;48.298;11.620;2023-12-20T01:08:33;3.60;;;1.63;;
46723;SDS011;32463;48.298;11.620;2023-12-20T01:11:00;4.28;;;1.55;;
46723;SDS011;32463;48.298;11.620;2023-12-20T01:13:27;3.63;;;1.58;;
46723;SDS011;32463;48.298;11.620;2023-12-20T01:15:53;4.03;;;1.83;;
46723;SDS011;32463;48.298;11.620;2023-12-20T01:18:20;5.03;;;1.95;;
46723;SDS011;32463;48.298;11.620;2023-12-20T01:20:47;3.83;;;1.73;;
46723;SDS011;32463;48.298;11.620;2023-12-20T01:23:13;3.63;;;1.67;;
46723;SDS011;32463;48.298;11.620;2023-12-20T01:25:40;2.85;;;1.55;;
46723;SDS011;32463;48.298;11.620;2023-12-20T01:28:06;3.08;;;1.45;;
46723;SDS011;32463;48.298;11.620;2023-12-20T01:30:33;2.60;;;1.50;;
46723;SDS011;32463;48.298;11.620;2023-12-20T01:33:00;2.92;;;1.42;;
46723;SDS011;32463;48.298;11.620;2023-12-20T01:35:27;4.32;;;1.77;;
46723;SDS011;32463;48.298;11.620;2023-12-20T01:37:53;2.72;;;1.38;;
46723;SDS011;32463;48.298;11.620;2023-12-20T01:40:22;2.95;;;1.60;;
46723;SDS011;32463;48.298;11.620;2023-12-20T01:43:02;3.22;;;1.30;;
46723;SDS011;32463;48.298;11.620;2023-12-20T01:45:32;2.55;;;1.30;;
46723;SDS011;32463;48.298;11.620;2023-12-20T01:47:59;3.35;;;1.35;;
46723;SDS011;32463;48.298;11.620;2023-12-20T01:50:27;3.13;;;1.52;;
46723;SDS011;32463;48.298;11.620;2023-12-20T01:52:55;3.00;;;1.35;;
46723;SDS011;32463;48.298;11.620;2023-12-20T01:55:24;4.35;;;1.40;;
46723;SDS011;32463;48.298;11.620;2023-12-20T01:57:51;4.22;;;1.63;;
46723;SDS011;32463;48.298;11.620;2023-12-20T02:00:18;2.88;;;1.30;;
46723;SDS011;32463;48.298;11.620;2023-12-20T02:02:48;3.35;;;1.52;;
46723;SDS011;32463;48.298;11.620;2023-12-20T02:05:16;3.88;;;1.60;;
46723;SDS011;32463;48.298;11.620;2023-12-20T02:07:43;3.53;;;1.50;;
46723;SDS011;32463;48.298;11.620;2023-12-20T02:10:09;2.38;;;1.23;;
46723;SDS011;32463;48.298;11.620;2023-12-20T02:12:36;2.85;;;1.38;;
46723;SDS011;32463;48.298;11.620;2023-12-20T02:15:03;3.03;;;1.38;;
46723;SDS011;32463;48.298;11.620;2023-12-20T02:17:31;2.70;;;1.50;;
46723;SDS011;32463;48.298;11.620;2023-12-20T02:19:58;3.53;;;1.20;;
46723;SDS011;32463;48.298;11.620;2023-12-20T02:22:24;1.77;;;1.30;;
46723;SDS011;32463;48.298;11.620;2023-12-20T02:24:51;3.05;;;1.23;;
46723;SDS011;32463;48.298;11.620;2023-12-20T02:27:17;3.13;;;1.40;;
46723;SDS011;32463;48.298;11.620;2023-12-20T02:29:46;2.55;;;1.20;;
46723;SDS011;32463;48.298;11.620;2023-12-20T02:32:13;2.47;;;1.23;;
46723;SDS011;32463;48.298;11.620;2023-12-20T02:34:40;2.83;;;1.40;;
46723;SDS011;32463;48.298;11.620;2023-12-20T02:37:06;2.38;;;1.30;;
46723;SDS011;32463;48.298;11.620;2023-12-20T02:39:33;2.25;;;1.00;;
46723;SDS011;32463;48.298;11.620;2023-12-20T02:41:59;1.35;;;0.88;;
46723;SDS011;32463;48.298;11.620;2023-12-20T02:44:25;2.50;;;1.13;;
46723;SDS011;32463;48.298;11.620;2023-12-20T02:46:52;2.35;;;1.10;;
46723;SDS011;32463;48.298;11.620;2023-12-20T02:49:18;2.75;;;1.15;;
46723;SDS011;32463;48.298;11.620;2023-12-20T02:51:45;2.80;;;1.20;;
46723;SDS011;32463;48.298;11.620;2023-12-20T02:54:11;3.03;;;1.42;;
46723;SDS011;32463;48.298;11.620;2023-12-20T02:56:38;2.13;;;1.13;;
46723;SDS011;32463;48.298;11.620;2023-12-20T02:59:04;1.73;;;0.95;;
46723;SDS011;32463;48.298;11.620;2023-12-20T03:01:33;2.13;;;1.08;;
46723;SDS011;32463;48.298;11.620;2023-12-20T03:04:00;2.80;;;1.08;;
46723;SDS011;32463;48.298;11.620;2023-12-20T03:06:27;2.40;;;1.17;;
46723;SDS011;32463;48.298;11.620;2023-12-20T03:08:53;2.10;;;1.27;;
46723;SDS011;32463;48.298;11.620;2023-12-20T03:11:20;2.35;;;0.88;;
46723;SDS011;32463;48.298;11.620;2023-12-20T03:13:46;3.03;;;1.45;;
46723;SDS011;32463;48.298;11.620;2023-12-20T03:16:13;1.77;;;1.02;;
46723;SDS011;32463;48.298;11.620;2023-12-20T03:18:41;3.30;;;0.90;;
46723;SDS011;32463;48.298;11.620;2023-12-20T03:21:07;1.25;;;0.95;;
46723;SDS011;32463;48.298;11.620;2023-12-20T03:23:34;2.72;;;1.10;;
46723;SDS011;32463;48.298;11.620;2023-12-20T03:26:02;2.05;;;1.08;;
46723;SDS011;32463;48.298;11.620;2023-12-20T03:28:29;1.13;;;0.80;;
46723;SDS011;32463;48.298;11.620;2023-12-20T03:30:55;0.98;;;0.60;;
46723;SDS011;32463;48.298;11.620;2023-12-20T03:33:22;1.92;;;0.98;;
46723;SDS011;32463;48.298;11.620;2023-12-20T03:35:48;3.60;;;1.55;;
46723;SDS011;32463;48.298;11.620;2023-12-20T03:38:15;2.15;;;1.05;;
46723;SDS011;32463;48.298;11.620;2023-12-20T03:40:42;2.45;;;1.00;;
46723;SDS011;32463;48.298;11.620;2023-12-20T03:43:09;0.68;;;0.60;;
46723;SDS011;32463;48.298;11.620;2023-12-20T03:45:36;1.27;;;0.88;;
46723;SDS011;32463;48.298;11.620;2023-12-20T03:48:04;1.67;;;1.00;;
46723;SDS011;32463;48.298;11.620;2023-12-20T03:50:31;1.75;;;0.85;;
46723;SDS011;32463;48.298;11.620;2023-12-20T03:52:58;1.98;;;1.00;;
46723;SDS011;32463;48.298;11.620;2023-12-20T03:55:25;0.82;;;0.77;;
46723;SDS011;32463;48.298;11.620;2023-12-20T03:57:52;2.58;;;1.00;;
46723;SDS011;32463;48.298;11.620;2023-12-20T04:00:19;3.53;;;1.30;;
46723;SDS011;32463;48.298;11.620;2023-12-20T04:02:45;1.83;;;1.08;;
46723;SDS011;32463;48.298;11.620;2023-12-20T04:05:12;1.45;;;0.85;;
46723;SDS011;32463;48.298;11.620;2023-12-20T04:07:39;1.73;;;0.95;;
46723;SDS011;32463;48.298;11.620;2023-12-20T04:10:06;2.38;;;1.10;;
46723;SDS011;32463;48.298;11.620;2023-12-20T04:12:34;5.22;;;1.42;;
46723;SDS011;32463;48.298;11.620;2023-12-20T04:15:01;2.20;;;1.10;;
46723;SDS011;32463;48.298;11.620;2023-12-20T04:17:28;3.92;;;1.40;;
46723;SDS011;32463;48.298;11.620;2023-12-20T04:19:55;2.20;;;1.23;;
46723;SDS011;32463;48.298;11.620;2023-12-20T04:22:22;3.47;;;1.65;;
46723;SDS011;32463;48.298;11.620;2023-12-20T04:24:49;2.47;;;0.90;;
46723;SDS011;32463;48.298;11.620;2023-12-20T04:27:15;2.67;;;1.48;;
46723;SDS011;32463;48.298;11.620;2023-12-20T04:29:42;2.55;;;1.40;;
46723;SDS011;32463;48.298;11.620;2023-12-20T04:32:08;2.75;;;1.58;;
46723;SDS011;32463;48.298;11.620;2023-12-20T04:34:34;2.92;;;1.15;;
46723;SDS011;32463;48.298;11.620;2023-12-20T04:37:01;3.47;;;1.40;;
46723;SDS011;32463;48.298;11.620;2023-12-20T04:39:28;2.75;;;1.33;;
46723;SDS011;32463;48.298;11.620;2023-12-20T04:41:55;3.15;;;1.20;;
46723;SDS011;32463;48.298;11.620;2023-12-20T04:44:21;4.57;;;2.00;;
46723;SDS011;32463;48.298;11.620;2023-12-20T04:46:48;3.25;;;1.60;;
46723;SDS011;32463;48.298;11.620;2023-12-20T04:49:15;3.22;;;1.52;;
46723;SDS011;32463;48.298;11.620;2023-12-20T04:51:41;3.15;;;1.65;;
46723;SDS011;32463;48.298;11.620;2023-12-20T04:54:08;4.18;;;1.58;;
46723;SDS011;32463;48.298;11.620;2023-12-20T04:56:35;6.05;;;2.78;;
46723;SDS011;32463;48.298;11.620;2023-12-20T04:59:04;3.13;;;1.40;;
46723;SDS011;32463;48.298;11.620;2023-12-20T05:01:30;5.05;;;1.88;;
46723;SDS011;32463;48.298;11.620;2023-12-20T05:03:57;4.57;;;1.95;;
46723;SDS011;32463;48.298;11.620;2023-12-20T05:06:23;5.10;;;1.95;;
46723;SDS011;32463;48.298;11.620;2023-12-20T05:08:50;5.55;;;2.35;;
46723;SDS011;32463;48.298;11.620;2023-12-20T05:11:16;3.75;;;1.83;;
46723;SDS011;32463;48.298;11.620;2023-12-20T05:13:42;4.57;;;2.10;;
46723;SDS011;32463;48.298;11.620;2023-12-20T05:16:09;4.10;;;2.15;;
46723;SDS011;32463;48.298;11.620;2023-12-20T05:18:36;5.18;;;2.33;;
46723;SDS011;32463;48.298;11.620;2023-12-20T05:21:02;5.93;;;2.42;;
46723;SDS011;32463;48.298;11.620;2023-12-20T05:23:29;4.53;;;2.25;;
46723;SDS011;32463;48.298;11.620;2023-12-20T05:25:55;4.68;;;2.20;;
46723;SDS011;32463;48.298;11.620;2023-12-20T05:28:22;6.45;;;2.88;;
46723;SDS011;32463;48.298;11.620;2023-12-20T05:30:49;7.32;;;3.38;;
46723;SDS011;32463;48.298;11.620;2023-12-20T05:33:15;5.15;;;2.50;;
46723;SDS011;32463;48.298;11.620;2023-12-20T05:35:42;6.40;;;3.17;;
46723;SDS011;32463;48.298;11.620;2023-12-20T05:38:08;4.55;;;2.40;;
46723;SDS011;32463;48.298;11.620;2023-12-20T05:40:35;6.32;;;2.38;;
46723;SDS011;32463;48.298;11.620;2023-12-20T05:43:02;13.50;;;3.00;;
46723;SDS011;32463;48.298;11.620;2023-12-20T05:45:28;6.25;;;2.60;;
46723;SDS011;32463;48.298;11.620;2023-12-20T05:47:55;5.10;;;2.50;;
46723;SDS011;32463;48.298;11.620;2023-12-20T05:50:22;8.13;;;3.13;;
46723;SDS011;32463;48.298;11.620;2023-12-20T05:52:49;5.93;;;2.85;;
46723;SDS011;32463;48.298;11.620;2023-12-20T05:55:16;4.72;;;2.55;;
46723;SDS011;32463;48.298;11.620;2023-12-20T05:57:42;6.00;;;2.70;;
46723;SDS011;32463;48.298;11.620;2023-12-20T06:00:09;6.13;;;2.80;;
46723;SDS011;32463;48.298;11.620;2023-12-20T06:02:36;5.53;;;3.00;;
46723;SDS011;32463;48.298;11.620;2023-12-20T06:05:04;4.70;;;2.40;;
46723;SDS011;32463;48.298;11.620;2023-12-20T06:07:31;6.47;;;3.08;;
46723;SDS011;32463;48.298;11.620;2023-12-20T06:09:57;5.05;;;2.70;;
46723;SDS011;32463;48.298;11.620;2023-12-20T06:12:24;8.63;;;3.47;;
46723;SDS011;32463;48.298;11.620;2023-12-20T06:14:51;6.30;;;3.22;;
46723;SDS011;32463;48.298;11.620;2023-12-20T06:17:19;6.30;;;2.92;;
46723;SDS011;32463;48.298;11.620;2023-12-20T06:19:45;5.85;;;3.20;;
46723;SDS011;32463;48.298;11.620;2023-12-20T06:22:13;6.78;;;2.75;;
46723;SDS011;32463;48.298;11.620;2023-12-20T06:24:40;6.70;;;3.05;;
46723;SDS011;32463;48.298;11.620;2023-12-20T06:27:06;5.32;;;2.53;;
46723;SDS011;32463;48.298;11.620;2023-12-20T06:29:33;8.57;;;2.70;;
46723;SDS011;32463;48.298;11.620;2023-12-20T06:32:01;4.90;;;2.60;;
46723;SDS011;32463;48.298;11.620;2023-12-20T06:34:27;5.60;;;2.95;;
46723;SDS011;32463;48.298;11.620;2023-12-20T06:36:55;6.20;;;3.05;;
46723;SDS011;32463;48.298;11.620;2023-12-20T06:39:21;6.95;;;2.70;;
46723;SDS011;32463;48.298;11.620;2023-12-20T06:41:48;5.47;;;2.58;;
46723;SDS011;32463;48.298;11.620;2023-12-20T06:44:14;6.20;;;2.80;;
46723;SDS011;32463;48.298;11.620;2023-12-20T06:46:40;4.75;;;2.22;;
46723;SDS011;32463;48.298;11.620;2023-12-20T06:49:07;5.20;;;2.60;;
46723;SDS011;32463;48.298;11.620;2023-12-20T06:51:33;5.75;;;3.03;;
46723;SDS011;32463;48.298;11.620;2023-12-20T06:54:00;5.13;;;2.75;;
46723;SDS011;32463;48.298;11.620;2023-12-20T06:56:27;5.50;;;2.75;;
46723;SDS011;32463;48.298;11.620;2023-12-20T06:58:54;5.53;;;3.10;;
46723;SDS011;32463;48.298;11.620;2023-12-20T07:01:20;5.90;;;2.97;;
46723;SDS011;32463;48.298;11.620;2023-12-20T07:03:48;5.95;;;3.20;;
46723;SDS011;32463;48.298;11.620;2023-12-20T07:06:14;7.18;;;3.22;;
46723;SDS011;32463;48.298;11.620;2023-12-20T07:08:42;7.50;;;3.83;;
46723;SDS011;32463;48.298;11.620;2023-12-20T07:11:09;7.55;;;3.25;;
46723;SDS011;32463;48.298;11.620;2023-12-20T07:13:35;6.45;;;2.85;;
46723;SDS011;32463;48.298;11.620;2023-12-20T07:16:01;7.43;;;3.85;;
46723;SDS011;32463;48.298;11.620;2023-12-20T07:18:28;6.00;;;2.83;;
46723;SDS011;32463;48.298;11.620;2023-12-20T07:20:55;5.85;;;2.97;;
46723;SDS011;32463;48.298;11.620;2023-12-20T07:23:21;7.07;;;3.15;;
46723;SDS011;32463;48.298;11.620;2023-12-20T07:25:48;6.53;;;3.60;;
46723;SDS011;32463;48.298;11.620;2023-12-20T07:28:15;12.10;;;3.10;;
46723;SDS011;32463;48.298;11.620;2023-12-20T07:30:41;5.97;;;2.92;;
46723;SDS011;32463;48.298;11.620;2023-12-20T07:33:07;5.47;;;2.45;;
46723;SDS011;32463;48.298;11.620;2023-12-20T07:35:34;7.72;;;3.30;;
46723;SDS011;32463;48.298;11.620;2023-12-20T07:38:01;6.30;;;2.97;;
46723;SDS011;32463;48.298;11.620;2023-12-20T07:40:27;4.95;;;2.90;;
46723;SDS011;32463;48.298;11.620;2023-12-20T07:42:54;5.82;;;2.88;;
46723;SDS011;32463;48.298;11.620;2023-12-20T07:45:20;5.50;;;2.63;;
46723;SDS011;32463;48.298;11.620;2023-12-20T07:47:47;5.07;;;2.55;;
46723;SDS011;32463;48.298;11.620;2023-12-20T07:50:14;5.50;;;2.88;;
46723;SDS011;32463;48.298;11.620;2023-12-20T07:52:40;6.10;;;2.58;;
46723;SDS011;32463;48.298;11.620;2023-12-20T07:55:07;6.72;;;2.80;;
46723;SDS011;32463;48.298;11.620;2023-12-20T07:57:33;3.80;;;2.10;;
46723;SDS011;32463;48.298;11.620;2023-12-20T08:00:00;6.15;;;2.80;;
46723;SDS011;32463;48.298;11.620;2023-12-20T08:02:28;3.92;;;2.17;;
46723;SDS011;32463;48.298;11.620;2023-12-20T08:04:55;4.47;;;2.10;;
46723;SDS011;32463;48.298;11.620;2023-12-20T08:07:21;5.75;;;2.45;;
46723;SDS011;32463;48.298;11.620;2023-12-20T08:09:48;5.07;;;2.22;;
46723;SDS011;32463;48.298;11.620;2023-12-20T08:12:14;6.88;;;2.30;;
46723;SDS011;32463;48.298;11.620;2023-12-20T08:14:42;3.65;;;1.92;;
46723;SDS011;32463;48.298;11.620;2023-12-20T08:17:08;4.38;;;2.25;;
46723;SDS011;32463;48.298;11.620;2023-12-20T08:19:35;3.90;;;1.98;;
46723;SDS011;32463;48.298;11.620;2023-12-20T08:22:01;4.55;;;2.50;;
46723;SDS011;32463;48.298;11.620;2023-12-20T08:24:27;3.78;;;1.83;;
46723;SDS011;32463;48.298;11.620;2023-12-20T08:26:55;4.30;;;2.05;;
46723;SDS011;32463;48.298;11.620;2023-12-20T08:29:22;4.90;;;2.20;;
46723;SDS011;32463;48.298;11.620;2023-12-20T08:31:52;3.88;;;1.80;;
46723;SDS011;32463;48.298;11.620;2023-12-20T08:34:19;3.08;;;1.65;;
46723;SDS011;32463;48.298;11.620;2023-12-20T08:36:45;3.25;;;1.67;;
46723;SDS011;32463;48.298;11.620;2023-12-20T08:39:12;3.67;;;1.63;;
46723;SDS011;32463;48.298;11.620;2023-12-20T08:41:38;3.35;;;1.70;;
46723;SDS011;32463;48.298;11.620;2023-12-20T08:44:05;4.00;;;1.75;;
46723;SDS011;32463;48.298;11.620;2023-12-20T08:46:31;3.95;;;1.90;;
46723;SDS011;32463;48.298;11.620;2023-12-20T08:48:58;3.00;;;1.60;;
46723;SDS011;32463;48.298;11.620;2023-12-20T08:51:25;3.20;;;1.75;;
46723;SDS011;32463;48.298;11.620;2023-12-20T08:53:52;4.15;;;1.35;;
46723;SDS011;32463;48.298;11.620;2023-12-20T08:56:18;2.78;;;1.48;;
46723;SDS011;32463;48.298;11.620;2023-12-20T08:58:47;2.97;;;1.42;;
46723;SDS011;32463;48.298;11.620;2023-12-20T09:01:14;3.33;;;1.77;;
46723;SDS011;32463;48.298;11.620;2023-12-20T09:03:41;4.32;;;2.00;;
46723;SDS011;32463;48.298;11.620;2023-12-20T09:06:07;3.40;;;1.65;;
46723;SDS011;32463;48.298;11.620;2023-12-20T09:08:33;2.95;;;1.50;;
46723;SDS011;32463;48.298;11.620;2023-12-20T09:11:00;2.97;;;1.60;;
46723;SDS011;32463;48.298;11.620;2023-12-20T09:13:26;2.75;;;1.77;;
46723;SDS011;32463;48.298;11.620;2023-12-20T09:15:56;2.85;;;1.60;;
46723;SDS011;32463;48.298;11.620;2023-12-20T09:18:23;2.95;;;1.42;;
46723;SDS011;32463;48.298;11.620;2023-12-20T09:20:49;4.70;;;1.95;;
46723;SDS011;32463;48.298;11.620;2023-12-20T09:23:17;4.13;;;1.85;;
46723;SDS011;32463;48.298;11.620;2023-12-20T09:25:44;4.15;;;1.95;;
46723;SDS011;32463;48.298;11.620;2023-12-20T09:28:10;3.55;;;1.70;;
46723;SDS011;32463;48.298;11.620;2023-12-20T09:30:37;5.50;;;2.58;;
46723;SDS011;32463;48.298;11.620;2023-12-20T09:33:05;3.67;;;2.28;;
46723;SDS011;32463;48.298;11.620;2023-12-20T09:35:33;3.60;;;1.90;;
46723;SDS011;32463;48.298;11.620;2023-12-20T09:37:59;3.83;;;1.95;;
46723;SDS011;32463;48.298;11.620;2023-12-20T09:40:26;3.63;;;1.80;;
46723;SDS011;32463;48.298;11.620;2023-12-20T09:43:26;5.95;;;1.98;;
46723;SDS011;32463;48.298;11.620;2023-12-20T09:45:46;3.35;;;2.00;;
46723;SDS011;32463;48.298;11.620;2023-12-20T09:48:14;3.45;;;2.17;;
46723;SDS011;32463;48.298;11.620;2023-12-20T09:50:44;8.55;;;2.38;;
46723;SDS011;32463;48.298;11.620;2023-12-20T09:53:12;4.18;;;2.03;;
46723;SDS011;32463;48.298;11.620;2023-12-20T09:55:41;3.72;;;1.65;;
46723;SDS011;32463;48.298;11.620;2023-12-20T09:58:08;6.38;;;2.10;;
46723;SDS011;32463;48.298;11.620;2023-12-20T10:00:35;4.47;;;2.22;;
46723;SDS011;32463;48.298;11.620;2023-12-20T10:03:01;4.07;;;1.85;;
46723;SDS011;32463;48.298;11.620;2023-12-20T10:05:29;4.53;;;2.35;;
46723;SDS011;32463;48.298;11.620;2023-12-20T10:08:00;5.07;;;1.88;;
46723;SDS011;32463;48.298;11.620;2023-12-20T10:10:28;3.42;;;1.95;;
46723;SDS011;32463;48.298;11.620;2023-12-20T10:13:04;4.90;;;1.88;;
46723;SDS011;32463;48.298;11.620;2023-12-20T10:15:36;5.38;;;2.20;;
46723;SDS011;32463;48.298;11.620;2023-12-20T10:18:04;4.15;;;2.20;;
46723;SDS011;32463;48.298;11.620;2023-12-20T10:20:31;3.47;;;1.67;;
46723;SDS011;32463;48.298;11.620;2023-12-20T10:22:57;4.18;;;1.95;;
46723;SDS011;32463;48.298;11.620;2023-12-20T10:25:25;5.82;;;2.83;;
46723;SDS011;32463;48.298;11.620;2023-12-20T10:30:37;3.58;;;1.83;;
46723;SDS011;32463;48.298;11.620;2023-12-20T10:33:05;4.63;;;2.38;;
46723;SDS011;32463;48.298;11.620;2023-12-20T10:35:36;4.05;;;1.73;;
46723;SDS011;32463;48.298;11.620;2023-12-20T10:38:03;3.55;;;1.83;;
46723;SDS011;32463;48.298;11.620;2023-12-20T10:40:33;4.80;;;1.90;;
46723;SDS011;32463;48.298;11.620;2023-12-20T10:43:01;3.35;;;1.73;;
46723;SDS011;32463;48.298;11.620;2023-12-20T10:45:28;4.13;;;1.83;;
46723;SDS011;32463;48.298;11.620;2023-12-20T10:47:55;4.60;;;1.95;;
46723;SDS011;32463;48.298;11.620;2023-12-20T10:50:22;3.50;;;1.80;;
46723;SDS011;32463;48.298;11.620;2023-12-20T10:52:49;3.63;;;2.00;;
46723;SDS011;32463;48.298;11.620;2023-12-20T10:55:20;4.40;;;2.05;;
46723;SDS011;32463;48.298;11.620;2023-12-20T10:57:47;4.35;;;1.92;;
46723;SDS011;32463;48.298;11.620;2023-12-20T11:00:19;4.75;;;1.80;;
46723;SDS011;32463;48.298;11.620;2023-12-20T11:02:48;14.27;;;1.90;;
46723;SDS011;32463;48.298;11.620;2023-12-20T11:08:02;2.88;;;1.60;;
46723;SDS011;32463;48.298;11.620;2023-12-20T11:13:23;4.57;;;1.65;;
46723;SDS011;32463;48.298;11.620;2023-12-20T11:16:15;2.80;;;1.50;;
46723;SDS011;32463;48.298;11.620;2023-12-20T11:18:42;3.00;;;1.45;;
46723;SDS011;32463;48.298;11.620;2023-12-20T11:21:11;10.02;;;4.30;;
46723;SDS011;32463;48.298;11.620;2023-12-20T11:23:39;3.47;;;1.63;;
46723;SDS011;32463;48.298;11.620;2023-12-20T11:26:08;3.25;;;1.85;;
46723;SDS011;32463;48.298;11.620;2023-12-20T11:28:35;3.60;;;1.80;;
46723;SDS011;32463;48.298;11.620;2023-12-20T11:31:01;2.33;;;1.45;;
46723;SDS011;32463;48.298;11.620;2023-12-20T11:33:36;3.65;;;1.80;;
46723;SDS011;32463;48.298;11.620;2023-12-20T11:36:07;2.90;;;1.55;;
46723;SDS011;32463;48.298;11.620;2023-12-20T11:38:49;3.95;;;1.85;;
46723;SDS011;32463;48.298;11.620;2023-12-20T11:41:25;5.22;;;1.80;;
46723;SDS011;32463;48.298;11.620;2023-12-20T11:43:55;3.83;;;1.77;;
46723;SDS011;32463;48.298;11.620;2023-12-20T11:46:22;3.70;;;1.63;;
46723;SDS011;32463;48.298;11.620;2023-12-20T11:48:49;4.38;;;1.95;;
46723;SDS011;32463;48.298;11.620;2023-12-20T11:51:15;2.50;;;1.38;;
46723;SDS011;32463;48.298;11.620;2023-12-20T11:53:41;3.65;;;1.98;;
46723;SDS011;32463;48.298;11.620;2023-12-20T11:56:08;4.15;;;2.10;;
46723;SDS011;32463;48.298;11.620;2023-12-20T11:58:38;2.47;;;1.40;;
46723;SDS011;32463;48.298;11.620;2023-12-20T12:01:04;2.72;;;1.35;;
46723;SDS011;32463;48.298;11.620;2023-12-20T12:03:32;2.08;;;1.40;;
46723;SDS011;32463;48.298;11.620;2023-12-20T12:05:58;2.25;;;1.35;;
46723;SDS011;32463;48.298;11.620;2023-12-20T12:08:26;3.20;;;1.60;;
46723;SDS011;32463;48.298;11.620;2023-12-20T12:10:52;2.40;;;1.38;;
46723;SDS011;32463;48.298;11.620;2023-12-20T12:13:19;1.27;;;1.00;;
46723;SDS011;32463;48.298;11.620;2023-12-20T12:15:45;2.58;;;1.40;;
46723;SDS011;32463;48.298;11.620;2023-12-20T12:18:15;2.63;;;1.60;;
46723;SDS011;32463;48.298;11.620;2023-12-20T12:20:42;3.15;;;1.50;;
46723;SDS011;32463;48.298;11.620;2023-12-20T12:23:08;2.88;;;1.40;;
46723;SDS011;32463;48.298;11.620;2023-12-20T12:25:36;2.35;;;1.40;;
46723;SDS011;32463;48.298;11.620;2023-12-20T12:28:03;3.53;;;1.80;;
46723;SDS011;32463;48.298;11.620;2023-12-20T12:30:30;2.78;;;1.50;;
46723;SDS011;32463;48.298;11.620;2023-12-20T12:32:57;3.65;;;1.75;;
46723;SDS011;32463;48.298;11.620;2023-12-20T12:35:25;2.92;;;1.58;;
46723;SDS011;32463;48.298;11.620;2023-12-20T12:37:51;3.65;;;1.80;;
46723;SDS011;32463;48.298;11.620;2023-12-20T12:40:18;2.80;;;1.40;;
46723;SDS011;32463;48.298;11.620;2023-12-20T12:42:45;2.58;;;1.48;;
46723;SDS011;32463;48.298;11.620;2023-12-20T12:45:11;2.88;;;1.45;;
46723;SDS011;32463;48.298;11.620;2023-12-20T12:47:38;3.33;;;1.52;;
46723;SDS011;32463;48.298;11.620;2023-12-20T12:50:05;3.15;;;1.67;;
46723;SDS011;32463;48.298;11.620;2023-12-20T12:52:32;4.80;;;1.40;;
46723;SDS011;32463;48.298;11.620;2023-12-20T12:55:00;3.22;;;1.60;;
46723;SDS011;32463;48.298;11.620;2023-12-20T12:57:26;2.95;;;1.65;;
46723;SDS011;32463;48.298;11.620;2023-12-20T12:59:53;2.47;;;1.30;;
46723;SDS011;32463;48.298;11.620;2023-12-20T13:02:19;4.68;;;2.08;;
46723;SDS011;32463;48.298;11.620;2023-12-20T13:04:46;3.58;;;2.00;;
46723;SDS011;32463;48.298;11.620;2023-12-20T13:07:12;2.83;;;1.60;;
46723;SDS011;32463;48.298;11.620;2023-12-20T13:09:39;3.15;;;1.25;;
46723;SDS011;32463;48.298;11.620;2023-12-20T13:12:06;2.17;;;1.48;;
46723;SDS011;32463;48.298;11.620;2023-12-20T13:14:33;4.53;;;1.60;;
46723;SDS011;32463;48.298;11.620;2023-12-20T13:17:01;1.67;;;1.20;;
46723;SDS011;32463;48.298;11.620;2023-12-20T13:19:28;3.08;;;1.33;;
46723;SDS011;32463;48.298;11.620;2023-12-20T13:21:55;3.25;;;1.45;;
46723;SDS011;32463;48.298;11.620;2023-12-20T13:24:23;3.67;;;1.48;;
46723;SDS011;32463;48.298;11.620;2023-12-20T13:26:49;2.42;;;1.60;;
46723;SDS011;32463;48.298;11.620;2023-12-20T13:29:16;3.33;;;1.80;;
46723;SDS011;32463;48.298;11.620;2023-12-20T13:31:42;3.90;;;1.40;;
46723;SDS011;32463;48.298;11.620;2023-12-20T13:34:09;5.88;;;2.25;;
46723;SDS011;32463;48.298;11.620;2023-12-20T13:36:36;5.40;;;2.13;;
46723;SDS011;32463;48.298;11.620;2023-12-20T13:39:03;5.30;;;1.70;;
46723;SDS011;32463;48.298;11.620;2023-12-20T13:41:30;4.63;;;1.88;;
46723;SDS011;32463;48.298;11.620;2023-12-20T13:43:57;3.78;;;1.73;;
46723;SDS011;32463;48.298;11.620;2023-12-20T13:46:23;3.92;;;1.70;;
46723;SDS011;32463;48.298;11.620;2023-12-20T13:48:50;5.20;;;1.63;;
46723;SDS011;32463;48.298;11.620;2023-12-20T13:51:16;2.83;;;1.45;;
46723;SDS011;32463;48.298;11.620;2023-12-20T13:53:43;8.82;;;2.80;;
46723;SDS011;32463;48.298;11.620;2023-12-20T13:56:09;5.97;;;2.00;;
46723;SDS011;32463;48.298;11.620;2023-12-20T13:58:36;4.40;;;1.92;;
46723;SDS011;32463;48.298;11.620;2023-12-20T14:01:02;5.22;;;1.83;;
46723;SDS011;32463;48.298;11.620;2023-12-20T14:03:28;7.40;;;2.15;;
46723;SDS011;32463;48.298;11.620;2023-12-20T14:05:56;2.83;;;1.63;;
46723;SDS011;32463;48.298;11.620;2023-12-20T14:08:22;3.60;;;1.60;;
46723;SDS011;32463;48.298;11.620;2023-12-20T14:10:49;7.30;;;1.98;;
46723;SDS011;32463;48.298;11.620;2023-12-20T14:13:15;3.42;;;1.23;;
46723;SDS011;32463;48.298;11.620;2023-12-20T14:15:42;6.68;;;1.83;;
46723;SDS011;32463;48.298;11.620;2023-12-20T14:18:08;5.22;;;1.40;;
46723;SDS011;32463;48.298;11.620;2023-12-20T14:20:35;3.15;;;1.63;;
46723;SDS011;32463;48.298;11.620;2023-12-20T14:23:05;4.15;;;1.60;;
46723;SDS011;32463;48.298;11.620;2023-12-20T14:25:32;6.07;;;1.70;;
46723;SDS011;32463;48.298;11.620;2023-12-20T14:27:59;2.55;;;1.25;;
46723;SDS011;32463;48.298;11.620;2023-12-20T14:30:29;4.20;;;1.42;;
46723;SDS011;32463;48.298;11.620;2023-12-20T14:33:01;4.40;;;1.20;;
46723;SDS011;32463;48.298;11.620;2023-12-20T14:35:28;2.78;;;1.08;;
46723;SDS011;32463;48.298;11.620;2023-12-20T14:37:55;6.32;;;1.30;;
46723;SDS011;32463;48.298;11.620;2023-12-20T14:40:21;4.45;;;1.80;;